Flag for USA

Past Weather in Pacific West Mobile Home Park, Washington, USA — Yesterday and Last 2 Weeks

Currently: 54 °F. Light rain. Mostly cloudy. (Weather station: Astoria Regional Airport, USA). See more current weather

Past Weather in Pacific West Mobile Home Park — Graph

°F

Pacific West Mobile Home Park Temperature Yesterday

Maximum temperature yesterday: 57 °F (at 12:55 pm)
Minimum temperature yesterday: 48 °F (at 7:38 am)
Average temperature yesterday: 54 °F

High & Low Weather Summary for the Past Weeks

 TemperatureHumidityPressure
High59 °F (Nov 28, 10:55 am)100% (Nov 16, 11:37 pm)30.51 "Hg (Nov 16, 11:37 pm)
Low31 °F (Nov 22, 4:55 am)46% (Nov 18, 12:55 am)29.73 "Hg (Nov 18, 8:55 pm)
Average48 °F88%30.17 "Hg
* Reported Nov 15 3:55 pm — Nov 30 3:55 pm, Pacific West Mobile Home Park. Weather by CustomWeather, © 2021

Note: Actual official high and low records may vary slightly from our data, if they occured in-between our weather recording intervals... More about our weather records

Pacific West Mobile Home Park Weather History for the Previous 24 Hours

Scroll right to see more
 ConditionsComfort  
Time TempWeatherWind HumidityBarometerVisibility
3:55 pm
Tue, Nov 30
54 °FLight rain. Fog.14 mph86%30.26 "Hg5 mi
2:55 pm54 °FLight rain. Overcast.13 mph83%30.24 "Hg9 mi
1:55 pm54 °FOvercast.13 mph80%30.22 "Hg10 mi
1:26 pm54 °FMostly cloudy.12 mph83%30.21 "Hg10 mi
12:55 pm53 °FLight rain. Mostly cloudy.14 mph83%30.22 "Hg7 mi
12:07 pm53 °FLight rain. More clouds than sun.13 mph83%30.24 "Hg8 mi
10:55 am53 °FLight rain. Mostly cloudy.13 mph86%30.24 "Hg7 mi
9:55 am53 °FLight rain. Fog.13 mph86%30.24 "Hg4 mi
8:55 am53 °FLight rain. Fog.14 mph89%30.23 "Hg6 mi
7:55 am54 °FLight rain. Overcast.13 mph90%30.22 "Hg10 mi
6:55 am53 °FOvercast.9 mph93%30.20 "Hg10 mi
5:55 am53 °FPassing clouds.14 mph93%30.19 "Hg10 mi
5:24 am53 °FOvercast.12 mph93%30.20 "Hg10 mi
4:55 am53 °FMostly cloudy.10 mph93%30.19 "Hg10 mi
4:03 am53 °FFog.10 mph96%30.20 "Hg5 mi
3:55 am53 °FFog.12 mph96%30.19 "Hg2 mi
3:28 am53 °FFog.10 mph96%30.20 "Hg2 mi
2:55 am53 °FLight rain. Fog.9 mph96%30.21 "Hg2 mi
2:25 am53 °FFog.9 mph96%30.21 "Hg2 mi
1:55 am54 °FLow clouds.9 mph93%30.20 "Hg10 mi
1:10 am54 °FFog.8 mph93%30.22 "Hg4 mi
12:30 am53 °FLight rain. Fog.7 mph96%30.22 "Hg3 mi
11:55 pm
Mon, Nov 29
53 °FFog.5 mph96%30.22 "Hg2 mi
11:21 pm53 °FFog.5 mph96%30.22 "Hg2 mi
10:55 pm53 °FLight rain. Fog.No wind100%30.22 "Hg2 mi
10:17 pm53 °FLight rain. Fog.5 mph96%30.23 "Hg2 mi
10:04 pm53 °FFog.6 mph100%30.24 "Hg1 mi
9:55 pm53 °FFog.3 mph96%30.24 "Hg2 mi
9:07 pm53 °FFog.6 mph100%30.21 "Hg6 mi
8:55 pm53 °FFog.6 mph100%30.20 "Hg4 mi
8:06 pm54 °FLight rain. Fog.7 mph97%30.24 "Hg3 mi
7:55 pm54 °FLight rain. Fog.7 mph97%30.24 "Hg3 mi
7:42 pm54 °FLight rain. Fog.9 mph97%30.24 "Hg2 mi
6:57 pm54 °FLight rain. Fog.6 mph97%30.23 "Hg4 mi
6:04 pm54 °FMostly cloudy.6 mph97%30.22 "Hg9 mi
5:55 pm54 °FMostly cloudy.6 mph97%30.22 "Hg9 mi
5:12 pm54 °FLow clouds.No wind97%30.22 "Hg9 mi
Weather by CustomWeather, © 2021

See weather overview